ジュネーヴ・コアントラン国際空港の過去48時間の天気

ジュネーヴ・コアントラン国際空港 (Geneve-Cointrin)

現在時刻: 10/23 08:33 CEST (10/23 06:33 UTC) 以下の時間は現地時間です。

過去48時間のMETAR気象情報
時間 風向 風速(m/s) 視程 気温(℃) 湿度(%) 気圧(hPa) 天気現象
23 08:20 北北東 3 8000m 13 88 1015
23 07:50 不定 2 10km以上 13 88 1015
23 07:20 不定 1 10km以上 13 88 1016
23 06:50 不定 1 10km以上 13 88 1016
23 06:20 2 10km以上 13 88 1016
23 05:50 不定 1 10km以上 13 88 1017
23 05:20 不定 2 10km以上 13 88 1017
23 04:50 不定 2 10km以上 14 82 1017
23 04:20 北北東 3 10km以上 14 82 1017
23 03:50 北北東 2 10km以上 14 82 1018
23 03:20 不定 1 10km以上 14 82 1018
23 02:50 不定 1 10km以上 14 82 1018
23 02:20 不定 1 10km以上 14 82 1018
23 01:50 2 10km以上 14 82 1018
23 01:20 北北東 2 10km以上 14 82 1018
23 00:50 北北東 2 10km以上 14 82 1019
23 00:20 北北東 3 10km以上 14 82 1019
22 23:50 2 10km以上 14 82 1019
22 23:20 北北東 3 10km以上 14 88 1020
22 22:50 北北東 2 10km以上 14 88 1020
22 22:20 北北東 2 10km以上 14 88 1020
22 21:50 北北東 2 10km以上 15 82 1020
22 21:20 北北東 3 10km以上 15 82 1020
22 20:50 北北東 2 10km以上 15 82 1020
21 23:20 不定 1 9000m 13 100 1022
21 22:50 不定 1 7000m 13 100 1022
21 22:20 1 8000m 13 100 1022
21 21:50 不定 1 9000m 13 100 1022
21 21:20 2 9000m 13 100 1022
21 20:50 北北西 1 10km以上 14 94 1022
21 20:20 東北東 2 10km以上 13 100 1022 弱い雨
21 19:50 2 10km以上 14 94 1021 弱い雨
21 19:20 静穏 0 10km以上 14 94 1021 弱い雨
21 18:50 不定 1 10km以上 14 100 1021
21 18:20 不定 2 10km以上 14 100 1020
21 17:50 不定 1 10km以上 14 100 1021 弱い雨
21 17:20 不定 1 10km以上 14 94 1021 弱い雨
21 16:50 不定 1 9000m 14 100 1021 弱い雨
21 16:20 不定 1 9000m 14 100 1021 弱い雨
21 15:50 西北西 2 8000m 14 100 1020 弱い雨
21 15:20 不定 1 10km以上 14 100 1020 弱い雨
21 14:50 不定 2 8000m 14 100 1020 弱い雨
21 14:20 不定 1 10km以上 15 94 1020 弱い雨
21 13:50 不定 1 10km以上 15 94 1020 弱い雨
21 13:20 不定 1 10km以上 14 100 1020 弱い雨
21 12:50 不定 1 7000m 14 100 1020
21 12:20 不定 1 8000m 14 100 1020 弱い雨
21 11:50 不定 1 10km以上 14 100 1020 弱い雨
21 11:20 不定 2 8000m 14 100 1019 弱い雨
21 10:50 不定 2 7000m 14 94 1019 弱い雨
21 10:20 不定 2 10km以上 14 100 1019
21 09:50 不定 1 10km以上 14 100 1018 弱い雨
21 09:20 不定 1 9000m 14 100 1018 弱い雨
21 08:50 不定 2 10km以上 14 100 1017 弱い雨
LSGG 230620Z 03005KT 8000 OVC014 13/11 Q1015 NOSIG
LSGG 230550Z VRB03KT 9999 BKN014 13/11 Q1015 NOSIG
LSGG 230520Z VRB02KT 9999 OVC014 13/11 Q1016 NOSIG
LSGG 230450Z VRB02KT 9999 OVC015 13/11 Q1016 BECMG OVC013
LSGG 230420Z 36003KT 320V030 9999 OVC015 13/11 Q1016 BECMG OVC013
LSGG 230350Z VRB02KT 9999 BKN016 13/11 Q1017 BECMG BKN013
LSGG 230320Z AUTO VRB03KT 9999 OVC016 13/11 Q1017 NOSIG
LSGG 230250Z AUTO VRB03KT 9999 BKN017 14/11 Q1017 NOSIG
LSGG 230220Z AUTO 03005KT 9999 FEW015 BKN018 14/11 Q1017 NOSIG
LSGG 230150Z AUTO 02004KT 340V040 9999 FEW015 OVC018 14/11 Q1018 NOSIG
LSGG 230120Z AUTO VRB02KT 9999 OVC018 14/11 Q1018 NOSIG
LSGG 230050Z AUTO VRB02KT 9999 OVC020 14/11 Q1018 NOSIG
LSGG 230020Z AUTO VRB02KT 9999 BKN018 14/11 Q1018 NOSIG
LSGG 222350Z AUTO 01003KT 310V030 9999 BKN018 14/11 Q1018 NOSIG
LSGG 222320Z AUTO 02004KT 350V050 9999 BKN018 14/11 Q1018 NOSIG
LSGG 222250Z AUTO 02004KT 9999 BKN018 14/11 Q1019 NOSIG
LSGG 222220Z AUTO 03006KT 9999 OVC018 14/11 Q1019 NOSIG
LSGG 222150Z AUTO 01004KT 9999 OVC018 14/11 Q1019 NOSIG
LSGG 222120Z 02005KT 9999 BKN019 14/12 Q1020 NOSIG
LSGG 222050Z 03004KT 9999 BKN018 14/12 Q1020 NOSIG
LSGG 222020Z 02004KT 9999 BKN018 14/12 Q1020 NOSIG
LSGG 221950Z 02004KT 9999 BKN018 15/12 Q1020 NOSIG
LSGG 221920Z 02005KT 9999 FEW015 BKN018 15/12 Q1020 NOSIG
LSGG 221850Z 02004KT 340V050 9999 FEW015 BKN017 15/12 Q1020 NOSIG
LSGG 212120Z VRB02KT 9000 FEW005 SCT100 13/13 Q1022 NOSIG
LSGG 212050Z VRB02KT 7000 FEW003 SCT007 BKN030 13/13 Q1022 NOSIG
LSGG 212020Z 01002KT 8000 FEW002 BKN030 13/13 Q1022 NOSIG
LSGG 211950Z VRB02KT 9000 FEW003 SCT030 BKN140 13/13 Q1022 NOSIG
LSGG 211920Z 36003KT 9000 FEW003 SCT080 BKN140 13/13 Q1022 NOSIG
LSGG 211850Z 33002KT 9999 FEW003 SCT030 BKN100 14/13 Q1022 NOSIG
LSGG 211820Z 06003KT 030V120 9999 -RA FEW003 SCT080 BKN100 13/13 Q1022 NOSIG
LSGG 211750Z 09003KT 070V140 9999 -RA FEW006 SCT080 BKN090 14/13 Q1021 NOSIG
LSGG 211720Z 00000KT 9999 -RA FEW012 SCT090 BKN110 14/13 Q1021 NOSIG
LSGG 211650Z VRB01KT 9999 FEW010 SCT095 BKN100 14/14 Q1021 NOSIG
LSGG 211620Z VRB03KT 9999 FEW008 SCT040 BKN080 14/14 Q1020 NOSIG
LSGG 211550Z VRB01KT 9999 -RA FEW005 SCT050 BKN080 14/14 Q1021 NOSIG
LSGG 211520Z VRB02KT 9999 -RA FEW005 SCT035 OVC080 14/13 Q1021 NOSIG
LSGG 211450Z VRB01KT 9000 -RA FEW006 BKN025 BKN080 14/14 Q1021 NOSIG
LSGG 211420Z VRB01KT 9000 -RA FEW006 SCT030 BKN080 14/14 Q1021 NOSIG
LSGG 211350Z 29003KT 260V320 8000 -RA FEW006 BKN040 BKN079 14/14 Q1020 NOSIG
LSGG 211320Z VRB02KT 9999 -RA FEW006 SCT015 BKN045 14/14 Q1020 TEMPO 3500 RA
LSGG 211250Z VRB03KT 8000 -RA FEW007 BKN040 BKN075 14/14 Q1020 TEMPO 3500 RA
LSGG 211220Z VRB02KT 9999 -RA FEW007 SCT009 BKN040 15/14 Q1020 NOSIG
LSGG 211150Z VRB02KT 9999 -RA FEW007 OVC100 15/14 Q1020 NOSIG
LSGG 211120Z VRB01KT 9999 -RA FEW003 BKN050 BKN065 14/14 Q1020 RERA NOSIG
LSGG 211050Z VRB01KT 7000 RA FEW003 BKN050 14/14 Q1020 TEMPO 4500
LSGG 211020Z VRB01KT 8000 -RA FEW003 BKN050 14/14 Q1020 RERA TEMPO 4500 RA
LSGG 210950Z VRB02KT 9999 -RA FEW005 BKN050 BKN085 14/14 Q1020 TEMPO 4500 RA
LSGG 210920Z VRB03KT 8000 -RA FEW003 SCT040 BKN085 14/14 Q1019 TEMPO 4500 RA
LSGG 210850Z VRB03KT 7000 -RA SCT025 BKN040 14/13 Q1019 RERA TEMPO 4500 RA
LSGG 210820Z VRB03KT 9999 FEW003 SCT025 BKN050 14/14 Q1019 NOSIG
LSGG 210750Z VRB02KT 9999 -RA FEW005 BKN032 BKN050 14/14 Q1018 NOSIG
LSGG 210720Z VRB02KT 9000 -RA FEW014 BKN032 BKN055 14/14 Q1018 NOSIG
LSGG 210650Z VRB03KT 9999 -RA FEW018 BKN035 BKN055 14/14 Q1017 NOSIG